sensor_id;sensor_type;location;lat;lon;timestamp;temperature;humidity
52509;DHT22;38420;53.150;6.370;2022-11-20T00:01:12;-0.40;99.90
52509;DHT22;38420;53.150;6.370;2022-11-20T00:03:38;-0.40;99.90
52509;DHT22;38420;53.150;6.370;2022-11-20T00:06:05;-0.40;99.90
52509;DHT22;38420;53.150;6.370;2022-11-20T00:08:31;-0.50;99.90
52509;DHT22;38420;53.150;6.370;2022-11-20T00:10:57;-0.40;99.90
52509;DHT22;38420;53.150;6.370;2022-11-20T00:13:23;-0.40;99.90
52509;DHT22;38420;53.150;6.370;2022-11-20T00:15:50;-0.40;99.90
52509;DHT22;38420;53.150;6.370;2022-11-20T00:18:21;-0.30;99.90
52509;DHT22;38420;53.150;6.370;2022-11-20T00:20:47;-0.30;99.90
52509;DHT22;38420;53.150;6.370;2022-11-20T00:23:12;-0.30;99.90
52509;DHT22;38420;53.150;6.370;2022-11-20T00:25:38;-0.40;99.90
52509;DHT22;38420;53.150;6.370;2022-11-20T00:28:03;-0.40;99.90
52509;DHT22;38420;53.150;6.370;2022-11-20T00:30:29;-0.30;99.90
52509;DHT22;38420;53.150;6.370;2022-11-20T00:32:56;-0.40;99.90
52509;DHT22;38420;53.150;6.370;2022-11-20T00:35:22;-0.30;99.90
52509;DHT22;38420;53.150;6.370;2022-11-20T00:37:47;-0.20;99.90
52509;DHT22;38420;53.150;6.370;2022-11-20T00:40:13;-0.30;99.90
52509;DHT22;38420;53.150;6.370;2022-11-20T00:42:38;-0.30;99.90
52509;DHT22;38420;53.150;6.370;2022-11-20T00:45:04;-0.30;99.90
52509;DHT22;38420;53.150;6.370;2022-11-20T00:47:30;-0.40;99.90
52509;DHT22;38420;53.150;6.370;2022-11-20T00:49:56;-0.30;99.90
52509;DHT22;38420;53.150;6.370;2022-11-20T00:52:21;-0.30;99.90
52509;DHT22;38420;53.150;6.370;2022-11-20T00:54:47;-0.40;99.90
52509;DHT22;38420;53.150;6.370;2022-11-20T00:57:12;-0.40;99.90
52509;DHT22;38420;53.150;6.370;2022-11-20T00:59:38;-0.40;99.90
52509;DHT22;38420;53.150;6.370;2022-11-20T01:02:03;-0.40;99.90
52509;DHT22;38420;53.150;6.370;2022-11-20T01:04:29;-0.30;99.90
52509;DHT22;38420;53.150;6.370;2022-11-20T01:06:55;-0.40;99.90
52509;DHT22;38420;53.150;6.370;2022-11-20T01:09:20;-0.30;99.90
52509;DHT22;38420;53.150;6.370;2022-11-20T01:11:46;-0.20;99.90
52509;DHT22;38420;53.150;6.370;2022-11-20T01:14:14;-0.30;99.90
52509;DHT22;38420;53.150;6.370;2022-11-20T01:16:51;-0.30;99.90
52509;DHT22;38420;53.150;6.370;2022-11-20T01:19:22;-0.20;99.90
52509;DHT22;38420;53.150;6.370;2022-11-20T01:21:50;-0.30;99.90
52509;DHT22;38420;53.150;6.370;2022-11-20T01:24:18;-0.30;99.90
52509;DHT22;38420;53.150;6.370;2022-11-20T01:26:44;-0.20;99.90
52509;DHT22;38420;53.150;6.370;2022-11-20T01:29:16;-0.20;99.90
52509;DHT22;38420;53.150;6.370;2022-11-20T01:31:43;-0.20;99.90
52509;DHT22;38420;53.150;6.370;2022-11-20T01:34:14;-0.30;99.90
52509;DHT22;38420;53.150;6.370;2022-11-20T01:36:40;-0.30;99.90
52509;DHT22;38420;53.150;6.370;2022-11-20T01:39:10;-0.20;99.90
52509;DHT22;38420;53.150;6.370;2022-11-20T01:41:36;-0.30;99.90
52509;DHT22;38420;53.150;6.370;2022-11-20T01:44:43;-0.20;99.90
52509;DHT22;38420;53.150;6.370;2022-11-20T01:47:09;-0.30;99.90
52509;DHT22;38420;53.150;6.370;2022-11-20T01:49:40;-0.20;99.90
52509;DHT22;38420;53.150;6.370;2022-11-20T01:52:12;-0.20;99.90
52509;DHT22;38420;53.150;6.370;2022-11-20T01:54:46;0.00;99.90
52509;DHT22;38420;53.150;6.370;2022-11-20T01:57:13;-0.10;99.90
52509;DHT22;38420;53.150;6.370;2022-11-20T01:59:44;-0.10;99.90
52509;DHT22;38420;53.150;6.370;2022-11-20T02:02:13;-0.10;99.90
52509;DHT22;38420;53.150;6.370;2022-11-20T02:04:39;-0.10;99.90
52509;DHT22;38420;53.150;6.370;2022-11-20T02:07:05;-0.10;99.90
52509;DHT22;38420;53.150;6.370;2022-11-20T02:09:31;-0.10;99.90
52509;DHT22;38420;53.150;6.370;2022-11-20T02:11:57;-0.10;99.90
52509;DHT22;38420;53.150;6.370;2022-11-20T02:14:24;0.00;99.90
52509;DHT22;38420;53.150;6.370;2022-11-20T02:16:51;-0.10;99.90
52509;DHT22;38420;53.150;6.370;2022-11-20T02:19:23;-0.20;99.90
52509;DHT22;38420;53.150;6.370;2022-11-20T02:21:59;-0.20;99.90
52509;DHT22;38420;53.150;6.370;2022-11-20T02:24:25;-0.10;99.90
52509;DHT22;38420;53.150;6.370;2022-11-20T02:26:59;-0.10;99.90
52509;DHT22;38420;53.150;6.370;2022-11-20T02:29:40;-0.10;99.90
52509;DHT22;38420;53.150;6.370;2022-11-20T02:32:21;-0.20;99.90
52509;DHT22;38420;53.150;6.370;2022-11-20T02:34:47;-0.10;99.90
52509;DHT22;38420;53.150;6.370;2022-11-20T02:37:13;0.00;99.90
52509;DHT22;38420;53.150;6.370;2022-11-20T02:39:40;-0.10;99.90
52509;DHT22;38420;53.150;6.370;2022-11-20T02:42:05;0.00;99.90
52509;DHT22;38420;53.150;6.370;2022-11-20T02:44:31;-0.10;99.90
52509;DHT22;38420;53.150;6.370;2022-11-20T02:46:58;0.00;99.90
52509;DHT22;38420;53.150;6.370;2022-11-20T02:49:24;0.00;99.90
52509;DHT22;38420;53.150;6.370;2022-11-20T02:51:49;0.00;99.90
52509;DHT22;38420;53.150;6.370;2022-11-20T02:54:15;0.00;99.90
52509;DHT22;38420;53.150;6.370;2022-11-20T02:56:41;0.00;99.90
52509;DHT22;38420;53.150;6.370;2022-11-20T02:59:07;0.00;99.90
52509;DHT22;38420;53.150;6.370;2022-11-20T03:01:32;0.00;99.90
52509;DHT22;38420;53.150;6.370;2022-11-20T03:03:58;0.00;99.90
52509;DHT22;38420;53.150;6.370;2022-11-20T03:06:23;0.10;99.90
52509;DHT22;38420;53.150;6.370;2022-11-20T03:08:49;0.10;99.90
52509;DHT22;38420;53.150;6.370;2022-11-20T03:11:15;0.10;99.90
52509;DHT22;38420;53.150;6.370;2022-11-20T03:13:40;0.00;99.90
52509;DHT22;38420;53.150;6.370;2022-11-20T03:16:11;0.10;99.90
52509;DHT22;38420;53.150;6.370;2022-11-20T03:18:37;0.10;99.90
52509;DHT22;38420;53.150;6.370;2022-11-20T03:21:03;0.10;99.90
52509;DHT22;38420;53.150;6.370;2022-11-20T03:23:30;0.10;99.90
52509;DHT22;38420;53.150;6.370;2022-11-20T03:26:06;0.10;99.90
52509;DHT22;38420;53.150;6.370;2022-11-20T03:28:32;0.10;99.90
52509;DHT22;38420;53.150;6.370;2022-11-20T03:30:58;0.10;99.90
52509;DHT22;38420;53.150;6.370;2022-11-20T03:33:23;0.10;99.90
52509;DHT22;38420;53.150;6.370;2022-11-20T03:35:49;0.10;99.90
52509;DHT22;38420;53.150;6.370;2022-11-20T03:38:14;0.10;99.90
52509;DHT22;38420;53.150;6.370;2022-11-20T03:40:40;0.10;99.90
52509;DHT22;38420;53.150;6.370;2022-11-20T03:43:05;0.10;99.90
52509;DHT22;38420;53.150;6.370;2022-11-20T03:45:31;0.10;99.90
52509;DHT22;38420;53.150;6.370;2022-11-20T03:47:56;0.00;99.90
52509;DHT22;38420;53.150;6.370;2022-11-20T03:50:22;0.00;99.90
52509;DHT22;38420;53.150;6.370;2022-11-20T03:52:47;-0.10;99.90
52509;DHT22;38420;53.150;6.370;2022-11-20T03:55:13;0.00;99.90
52509;DHT22;38420;53.150;6.370;2022-11-20T03:57:38;0.00;99.90
52509;DHT22;38420;53.150;6.370;2022-11-20T04:00:05;0.00;99.90
52509;DHT22;38420;53.150;6.370;2022-11-20T04:02:31;0.00;99.90
52509;DHT22;38420;53.150;6.370;2022-11-20T04:04:57;0.00;99.90
52509;DHT22;38420;53.150;6.370;2022-11-20T04:07:22;0.10;99.90
52509;DHT22;38420;53.150;6.370;2022-11-20T04:09:48;0.00;99.90
52509;DHT22;38420;53.150;6.370;2022-11-20T04:12:13;0.10;99.90
52509;DHT22;38420;53.150;6.370;2022-11-20T04:14:39;0.10;99.90
52509;DHT22;38420;53.150;6.370;2022-11-20T04:17:05;0.10;99.90
52509;DHT22;38420;53.150;6.370;2022-11-20T04:19:30;0.10;99.90
52509;DHT22;38420;53.150;6.370;2022-11-20T04:21:56;0.10;99.90
52509;DHT22;38420;53.150;6.370;2022-11-20T04:24:21;0.10;99.90
52509;DHT22;38420;53.150;6.370;2022-11-20T04:26:47;0.20;99.90
52509;DHT22;38420;53.150;6.370;2022-11-20T04:29:12;0.20;99.90
52509;DHT22;38420;53.150;6.370;2022-11-20T04:31:38;0.30;99.90
52509;DHT22;38420;53.150;6.370;2022-11-20T04:34:06;0.20;99.90
52509;DHT22;38420;53.150;6.370;2022-11-20T04:36:32;0.20;99.90
52509;DHT22;38420;53.150;6.370;2022-11-20T04:39:00;0.30;99.90
52509;DHT22;38420;53.150;6.370;2022-11-20T04:41:29;0.30;99.90
52509;DHT22;38420;53.150;6.370;2022-11-20T04:43:57;0.40;99.90
52509;DHT22;38420;53.150;6.370;2022-11-20T04:46:25;0.40;99.90
52509;DHT22;38420;53.150;6.370;2022-11-20T04:48:51;0.40;99.90
52509;DHT22;38420;53.150;6.370;2022-11-20T04:51:17;0.40;99.90
52509;DHT22;38420;53.150;6.370;2022-11-20T04:53:42;0.30;99.90
52509;DHT22;38420;53.150;6.370;2022-11-20T04:56:10;0.30;99.90
52509;DHT22;38420;53.150;6.370;2022-11-20T04:58:36;0.30;99.90
52509;DHT22;38420;53.150;6.370;2022-11-20T05:01:07;0.30;99.90
52509;DHT22;38420;53.150;6.370;2022-11-20T05:03:34;0.30;99.90
52509;DHT22;38420;53.150;6.370;2022-11-20T05:06:01;0.30;99.90
52509;DHT22;38420;53.150;6.370;2022-11-20T05:08:27;0.30;99.90
52509;DHT22;38420;53.150;6.370;2022-11-20T05:10:52;0.40;99.90
52509;DHT22;38420;53.150;6.370;2022-11-20T05:13:18;0.30;99.90
52509;DHT22;38420;53.150;6.370;2022-11-20T05:15:44;0.30;99.90
52509;DHT22;38420;53.150;6.370;2022-11-20T05:18:09;0.30;99.90
52509;DHT22;38420;53.150;6.370;2022-11-20T05:20:35;0.30;99.90
52509;DHT22;38420;53.150;6.370;2022-11-20T05:23:01;0.30;99.90
52509;DHT22;38420;53.150;6.370;2022-11-20T05:25:27;0.40;99.90
52509;DHT22;38420;53.150;6.370;2022-11-20T05:27:53;0.40;99.90
52509;DHT22;38420;53.150;6.370;2022-11-20T05:30:19;0.30;99.90
52509;DHT22;38420;53.150;6.370;2022-11-20T05:32:44;0.40;99.90
52509;DHT22;38420;53.150;6.370;2022-11-20T05:35:10;0.40;99.90
52509;DHT22;38420;53.150;6.370;2022-11-20T05:37:36;0.30;99.90
52509;DHT22;38420;53.150;6.370;2022-11-20T05:40:01;0.40;99.90
52509;DHT22;38420;53.150;6.370;2022-11-20T05:42:30;0.30;99.90
52509;DHT22;38420;53.150;6.370;2022-11-20T05:45:00;0.40;99.90
52509;DHT22;38420;53.150;6.370;2022-11-20T05:47:27;0.40;99.90
52509;DHT22;38420;53.150;6.370;2022-11-20T05:49:53;0.40;99.90
52509;DHT22;38420;53.150;6.370;2022-11-20T05:52:19;0.40;99.90
52509;DHT22;38420;53.150;6.370;2022-11-20T05:54:45;0.40;99.90
52509;DHT22;38420;53.150;6.370;2022-11-20T05:57:11;0.50;99.90
52509;DHT22;38420;53.150;6.370;2022-11-20T05:59:36;0.50;99.90
52509;DHT22;38420;53.150;6.370;2022-11-20T06:02:02;0.50;99.90
52509;DHT22;38420;53.150;6.370;2022-11-20T06:04:27;0.50;99.90
52509;DHT22;38420;53.150;6.370;2022-11-20T06:06:53;0.50;99.90
52509;DHT22;38420;53.150;6.370;2022-11-20T06:09:18;0.50;99.90
52509;DHT22;38420;53.150;6.370;2022-11-20T06:11:44;0.50;99.90
52509;DHT22;38420;53.150;6.370;2022-11-20T06:14:09;0.50;99.90
52509;DHT22;38420;53.150;6.370;2022-11-20T06:16:35;0.40;99.90
52509;DHT22;38420;53.150;6.370;2022-11-20T06:19:01;0.50;99.90
52509;DHT22;38420;53.150;6.370;2022-11-20T06:21:26;0.50;99.90
52509;DHT22;38420;53.150;6.370;2022-11-20T06:23:53;0.50;99.90
52509;DHT22;38420;53.150;6.370;2022-11-20T06:26:24;0.50;99.90
52509;DHT22;38420;53.150;6.370;2022-11-20T06:28:51;0.40;99.90
52509;DHT22;38420;53.150;6.370;2022-11-20T06:31:19;0.50;99.90
52509;DHT22;38420;53.150;6.370;2022-11-20T06:33:45;0.40;99.90
52509;DHT22;38420;53.150;6.370;2022-11-20T06:36:12;0.50;99.90
52509;DHT22;38420;53.150;6.370;2022-11-20T06:38:39;0.50;99.90
52509;DHT22;38420;53.150;6.370;2022-11-20T06:41:07;0.50;99.90
52509;DHT22;38420;53.150;6.370;2022-11-20T06:43:35;0.50;99.90
52509;DHT22;38420;53.150;6.370;2022-11-20T06:46:01;0.50;99.90
52509;DHT22;38420;53.150;6.370;2022-11-20T06:48:28;0.50;99.90
52509;DHT22;38420;53.150;6.370;2022-11-20T06:50:54;0.50;99.90
52509;DHT22;38420;53.150;6.370;2022-11-20T06:53:19;0.40;99.90
52509;DHT22;38420;53.150;6.370;2022-11-20T06:55:46;0.50;99.90
52509;DHT22;38420;53.150;6.370;2022-11-20T06:58:12;0.50;99.90
52509;DHT22;38420;53.150;6.370;2022-11-20T07:00:39;0.50;99.90
52509;DHT22;38420;53.150;6.370;2022-11-20T07:03:05;0.50;99.90
52509;DHT22;38420;53.150;6.370;2022-11-20T07:05:31;0.50;99.90
52509;DHT22;38420;53.150;6.370;2022-11-20T07:07:57;0.50;99.90
52509;DHT22;38420;53.150;6.370;2022-11-20T07:10:24;0.50;99.90
52509;DHT22;38420;53.150;6.370;2022-11-20T07:12:50;0.50;99.90
52509;DHT22;38420;53.150;6.370;2022-11-20T07:15:20;0.50;99.90
52509;DHT22;38420;53.150;6.370;2022-11-20T07:17:46;0.50;99.90
52509;DHT22;38420;53.150;6.370;2022-11-20T07:20:12;0.60;99.90
52509;DHT22;38420;53.150;6.370;2022-11-20T07:22:38;0.50;99.90
52509;DHT22;38420;53.150;6.370;2022-11-20T07:25:04;0.60;99.90
52509;DHT22;38420;53.150;6.370;2022-11-20T07:27:30;0.60;99.90
52509;DHT22;38420;53.150;6.370;2022-11-20T07:29:56;0.60;99.90
52509;DHT22;38420;53.150;6.370;2022-11-20T07:32:22;0.60;99.90
52509;DHT22;38420;53.150;6.370;2022-11-20T07:34:48;0.60;99.90
52509;DHT22;38420;53.150;6.370;2022-11-20T07:37:14;0.60;99.90
52509;DHT22;38420;53.150;6.370;2022-11-20T07:39:39;0.50;99.90
52509;DHT22;38420;53.150;6.370;2022-11-20T07:42:06;0.50;99.90
52509;DHT22;38420;53.150;6.370;2022-11-20T07:44:32;0.50;99.90
52509;DHT22;38420;53.150;6.370;2022-11-20T07:46:58;0.50;99.90
52509;DHT22;38420;53.150;6.370;2022-11-20T07:49:23;0.50;99.90
52509;DHT22;38420;53.150;6.370;2022-11-20T07:51:52;0.50;99.90
52509;DHT22;38420;53.150;6.370;2022-11-20T07:54:20;0.50;99.90
52509;DHT22;38420;53.150;6.370;2022-11-20T07:56:47;0.50;99.90
52509;DHT22;38420;53.150;6.370;2022-11-20T07:59:13;0.50;99.90
52509;DHT22;38420;53.150;6.370;2022-11-20T08:01:39;0.50;99.90
52509;DHT22;38420;53.150;6.370;2022-11-20T08:04:05;0.50;99.90
52509;DHT22;38420;53.150;6.370;2022-11-20T08:06:31;0.50;99.90
52509;DHT22;38420;53.150;6.370;2022-11-20T08:08:57;0.40;99.90
52509;DHT22;38420;53.150;6.370;2022-11-20T08:11:23;0.40;99.90
52509;DHT22;38420;53.150;6.370;2022-11-20T08:14:07;0.50;99.90
52509;DHT22;38420;53.150;6.370;2022-11-20T08:16:40;0.50;99.90
52509;DHT22;38420;53.150;6.370;2022-11-20T08:19:06;0.50;99.90
52509;DHT22;38420;53.150;6.370;2022-11-20T08:21:33;0.50;99.90
52509;DHT22;38420;53.150;6.370;2022-11-20T08:23:59;0.50;99.90
52509;DHT22;38420;53.150;6.370;2022-11-20T08:26:25;0.40;99.90
52509;DHT22;38420;53.150;6.370;2022-11-20T08:28:55;0.40;99.90
52509;DHT22;38420;53.150;6.370;2022-11-20T08:31:22;0.50;99.90
52509;DHT22;38420;53.150;6.370;2022-11-20T08:33:49;0.50;99.90
52509;DHT22;38420;53.150;6.370;2022-11-20T08:36:16;0.50;99.90
52509;DHT22;38420;53.150;6.370;2022-11-20T08:38:41;0.50;99.90
52509;DHT22;38420;53.150;6.370;2022-11-20T08:41:07;0.50;99.90
52509;DHT22;38420;53.150;6.370;2022-11-20T08:43:53;0.50;99.90
52509;DHT22;38420;53.150;6.370;2022-11-20T08:46:19;0.50;99.90
52509;DHT22;38420;53.150;6.370;2022-11-20T08:48:45;0.50;99.90
52509;DHT22;38420;53.150;6.370;2022-11-20T08:51:11;0.50;99.90
52509;DHT22;38420;53.150;6.370;2022-11-20T08:53:38;0.50;99.90
52509;DHT22;38420;53.150;6.370;2022-11-20T08:56:04;0.50;99.90
52509;DHT22;38420;53.150;6.370;2022-11-20T08:58:29;0.60;99.90
52509;DHT22;38420;53.150;6.370;2022-11-20T09:00:55;0.50;99.90
52509;DHT22;38420;53.150;6.370;2022-11-20T09:03:21;0.50;99.90
52509;DHT22;38420;53.150;6.370;2022-11-20T09:05:46;0.50;99.90
52509;DHT22;38420;53.150;6.370;2022-11-20T09:08:12;0.60;99.90
52509;DHT22;38420;53.150;6.370;2022-11-20T09:10:37;0.60;99.90
52509;DHT22;38420;53.150;6.370;2022-11-20T09:13:05;0.60;99.90
52509;DHT22;38420;53.150;6.370;2022-11-20T09:15:31;0.60;99.90
52509;DHT22;38420;53.150;6.370;2022-11-20T09:17:59;0.60;99.90
52509;DHT22;38420;53.150;6.370;2022-11-20T09:20:26;0.60;99.90
52509;DHT22;38420;53.150;6.370;2022-11-20T09:22:54;0.60;99.90
52509;DHT22;38420;53.150;6.370;2022-11-20T09:25:20;0.60;99.90
52509;DHT22;38420;53.150;6.370;2022-11-20T09:27:46;0.70;99.90
52509;DHT22;38420;53.150;6.370;2022-11-20T09:30:13;0.70;99.90
52509;DHT22;38420;53.150;6.370;2022-11-20T09:32:39;0.70;99.90
52509;DHT22;38420;53.150;6.370;2022-11-20T09:35:05;0.70;99.90
52509;DHT22;38420;53.150;6.370;2022-11-20T09:37:31;0.70;99.90
52509;DHT22;38420;53.150;6.370;2022-11-20T09:39:56;0.70;99.90
52509;DHT22;38420;53.150;6.370;2022-11-20T09:48:20;0.80;99.90
52509;DHT22;38420;53.150;6.370;2022-11-20T09:56:14;0.90;99.90
52509;DHT22;38420;53.150;6.370;2022-11-20T09:58:45;0.90;99.90
52509;DHT22;38420;53.150;6.370;2022-11-20T10:01:15;0.90;99.90
52509;DHT22;38420;53.150;6.370;2022-11-20T10:06:19;1.00;99.90
52509;DHT22;38420;53.150;6.370;2022-11-20T10:08:59;1.10;99.90
52509;DHT22;38420;53.150;6.370;2022-11-20T10:14:24;1.20;99.90
52509;DHT22;38420;53.150;6.370;2022-11-20T10:16:58;1.20;99.90
52509;DHT22;38420;53.150;6.370;2022-11-20T10:19:47;1.20;99.90
52509;DHT22;38420;53.150;6.370;2022-11-20T10:22:21;1.30;99.90
52509;DHT22;38420;53.150;6.370;2022-11-20T10:25:19;1.30;99.90
52509;DHT22;38420;53.150;6.370;2022-11-20T10:30:55;1.40;99.90
52509;DHT22;38420;53.150;6.370;2022-11-20T10:33:24;1.50;99.90
52509;DHT22;38420;53.150;6.370;2022-11-20T10:38:23;1.60;99.90
52509;DHT22;38420;53.150;6.370;2022-11-20T10:40:56;1.50;99.90
52509;DHT22;38420;53.150;6.370;2022-11-20T10:43:41;1.60;99.90
52509;DHT22;38420;53.150;6.370;2022-11-20T10:46:14;1.50;99.90
52509;DHT22;38420;53.150;6.370;2022-11-20T10:48:42;1.60;99.90
52509;DHT22;38420;53.150;6.370;2022-11-20T10:54:12;1.50;99.90
52509;DHT22;38420;53.150;6.370;2022-11-20T10:56:48;1.50;99.90
52509;DHT22;38420;53.150;6.370;2022-11-20T11:02:22;1.50;99.90
52509;DHT22;38420;53.150;6.370;2022-11-20T11:04:52;1.50;99.90
52509;DHT22;38420;53.150;6.370;2022-11-20T11:07:24;1.50;99.90
52509;DHT22;38420;53.150;6.370;2022-11-20T11:09:54;1.50;99.90
52509;DHT22;38420;53.150;6.370;2022-11-20T11:12:23;1.50;99.90
52509;DHT22;38420;53.150;6.370;2022-11-20T11:14:51;1.60;99.90
52509;DHT22;38420;53.150;6.370;2022-11-20T11:17:31;1.60;99.90
52509;DHT22;38420;53.150;6.370;2022-11-20T11:20:07;1.60;99.90
52509;DHT22;38420;53.150;6.370;2022-11-20T11:22:48;1.60;99.90
52509;DHT22;38420;53.150;6.370;2022-11-20T11:25:35;1.70;99.90
52509;DHT22;38420;53.150;6.370;2022-11-20T11:28:03;1.70;99.90
52509;DHT22;38420;53.150;6.370;2022-11-20T11:30:40;1.80;99.90
52509;DHT22;38420;53.150;6.370;2022-11-20T11:33:10;1.80;99.90
52509;DHT22;38420;53.150;6.370;2022-11-20T11:35:45;1.90;99.90
52509;DHT22;38420;53.150;6.370;2022-11-20T11:38:15;2.00;99.90
52509;DHT22;38420;53.150;6.370;2022-11-20T11:40:42;2.00;99.90
52509;DHT22;38420;53.150;6.370;2022-11-20T11:43:19;2.00;99.90
52509;DHT22;38420;53.150;6.370;2022-11-20T11:46:28;2.00;99.90
52509;DHT22;38420;53.150;6.370;2022-11-20T11:48:59;2.10;99.90
52509;DHT22;38420;53.150;6.370;2022-11-20T11:52:02;2.20;99.90
52509;DHT22;38420;53.150;6.370;2022-11-20T12:00:13;2.40;99.90
52509;DHT22;38420;53.150;6.370;2022-11-20T12:05:41;2.70;99.90
52509;DHT22;38420;53.150;6.370;2022-11-20T12:08:18;2.80;99.90
52509;DHT22;38420;53.150;6.370;2022-11-20T12:13:45;3.00;99.90
52509;DHT22;38420;53.150;6.370;2022-11-20T12:16:15;3.00;99.90
52509;DHT22;38420;53.150;6.370;2022-11-20T12:18:43;3.10;99.90
52509;DHT22;38420;53.150;6.370;2022-11-20T12:27:10;3.40;99.90
52509;DHT22;38420;53.150;6.370;2022-11-20T12:32:22;3.50;99.90
52509;DHT22;38420;53.150;6.370;2022-11-20T12:40:38;3.30;99.90
52509;DHT22;38420;53.150;6.370;2022-11-20T12:43:17;3.30;99.90
52509;DHT22;38420;53.150;6.370;2022-11-20T12:46:43;3.20;99.90
52509;DHT22;38420;53.150;6.370;2022-11-20T12:51:46;3.20;99.90
52509;DHT22;38420;53.150;6.370;2022-11-20T12:55:00;3.20;99.90
52509;DHT22;38420;53.150;6.370;2022-11-20T13:00:15;3.30;99.90
52509;DHT22;38420;53.150;6.370;2022-11-20T13:03:06;3.30;99.90
52509;DHT22;38420;53.150;6.370;2022-11-20T13:08:51;3.30;99.90
52509;DHT22;38420;53.150;6.370;2022-11-20T13:11:34;3.40;99.90
52509;DHT22;38420;53.150;6.370;2022-11-20T13:14:39;3.30;99.90
52509;DHT22;38420;53.150;6.370;2022-11-20T13:17:24;3.30;99.90
52509;DHT22;38420;53.150;6.370;2022-11-20T13:19:55;3.30;99.90
52509;DHT22;38420;53.150;6.370;2022-11-20T13:22:28;3.30;99.90
52509;DHT22;38420;53.150;6.370;2022-11-20T13:24:54;3.30;99.90
52509;DHT22;38420;53.150;6.370;2022-11-20T13:27:22;3.40;99.90
52509;DHT22;38420;53.150;6.370;2022-11-20T13:30:24;3.40;99.90
52509;DHT22;38420;53.150;6.370;2022-11-20T13:32:55;3.40;99.90
52509;DHT22;38420;53.150;6.370;2022-11-20T13:35:54;3.40;99.90
52509;DHT22;38420;53.150;6.370;2022-11-20T13:38:18;3.50;99.90
52509;DHT22;38420;53.150;6.370;2022-11-20T13:40:58;3.40;99.90
52509;DHT22;38420;53.150;6.370;2022-11-20T13:43:42;3.40;99.90
52509;DHT22;38420;53.150;6.370;2022-11-20T13:46:10;3.40;99.90
52509;DHT22;38420;53.150;6.370;2022-11-20T13:48:41;3.40;99.90
52509;DHT22;38420;53.150;6.370;2022-11-20T14:01:57;3.40;99.90
52509;DHT22;38420;53.150;6.370;2022-11-20T14:04:30;3.40;99.90
52509;DHT22;38420;53.150;6.370;2022-11-20T14:06:58;3.40;99.90
52509;DHT22;38420;53.150;6.370;2022-11-20T14:09:27;3.40;99.90
52509;DHT22;38420;53.150;6.370;2022-11-20T14:11:53;3.30;99.90
52509;DHT22;38420;53.150;6.370;2022-11-20T14:14:21;3.30;99.90
52509;DHT22;38420;53.150;6.370;2022-11-20T14:16:47;3.30;99.90
52509;DHT22;38420;53.150;6.370;2022-11-20T14:21:48;3.20;99.90
52509;DHT22;38420;53.150;6.370;2022-11-20T14:24:19;3.20;99.90
52509;DHT22;38420;53.150;6.370;2022-11-20T14:26:46;3.10;99.90
52509;DHT22;38420;53.150;6.370;2022-11-20T14:29:21;3.10;99.90
52509;DHT22;38420;53.150;6.370;2022-11-20T14:31:50;3.10;99.90
52509;DHT22;38420;53.150;6.370;2022-11-20T14:34:29;3.10;99.90
52509;DHT22;38420;53.150;6.370;2022-11-20T14:37:04;3.10;99.90
52509;DHT22;38420;53.150;6.370;2022-11-20T14:39:34;3.10;99.90
52509;DHT22;38420;53.150;6.370;2022-11-20T14:42:00;3.10;99.90
52509;DHT22;38420;53.150;6.370;2022-11-20T14:44:35;3.10;99.90
52509;DHT22;38420;53.150;6.370;2022-11-20T14:47:02;3.00;99.90
52509;DHT22;38420;53.150;6.370;2022-11-20T14:49:30;3.00;99.90
52509;DHT22;38420;53.150;6.370;2022-11-20T14:52:02;3.00;99.90
52509;DHT22;38420;53.150;6.370;2022-11-20T14:54:28;2.90;99.90
52509;DHT22;38420;53.150;6.370;2022-11-20T14:57:00;2.90;99.90
52509;DHT22;38420;53.150;6.370;2022-11-20T14:59:27;2.90;99.90
52509;DHT22;38420;53.150;6.370;2022-11-20T15:01:57;2.90;99.90
52509;DHT22;38420;53.150;6.370;2022-11-20T15:04:23;2.90;99.90
52509;DHT22;38420;53.150;6.370;2022-11-20T15:06:50;2.90;99.90
52509;DHT22;38420;53.150;6.370;2022-11-20T15:09:18;2.80;99.90
52509;DHT22;38420;53.150;6.370;2022-11-20T15:11:59;2.80;99.90
52509;DHT22;38420;53.150;6.370;2022-11-20T15:14:26;2.70;99.90
52509;DHT22;38420;53.150;6.370;2022-11-20T15:16:53;2.70;99.90
52509;DHT22;38420;53.150;6.370;2022-11-20T15:19:21;2.70;99.90
52509;DHT22;38420;53.150;6.370;2022-11-20T15:21:47;2.70;99.90
52509;DHT22;38420;53.150;6.370;2022-11-20T15:24:13;2.60;99.90
52509;DHT22;38420;53.150;6.370;2022-11-20T15:26:39;2.60;99.90
52509;DHT22;38420;53.150;6.370;2022-11-20T15:29:12;2.60;99.90
52509;DHT22;38420;53.150;6.370;2022-11-20T15:31:38;2.60;99.90
52509;DHT22;38420;53.150;6.370;2022-11-20T15:34:14;2.50;99.90
52509;DHT22;38420;53.150;6.370;2022-11-20T15:36:41;2.50;99.90
52509;DHT22;38420;53.150;6.370;2022-11-20T15:39:07;2.50;99.90
52509;DHT22;38420;53.150;6.370;2022-11-20T15:41:37;2.50;99.90
52509;DHT22;38420;53.150;6.370;2022-11-20T15:44:03;2.40;99.90
52509;DHT22;38420;53.150;6.370;2022-11-20T15:46:32;2.40;99.90
52509;DHT22;38420;53.150;6.370;2022-11-20T15:49:02;2.50;99.90
52509;DHT22;38420;53.150;6.370;2022-11-20T15:51:34;2.50;99.90
52509;DHT22;38420;53.150;6.370;2022-11-20T15:54:03;2.50;99.90
52509;DHT22;38420;53.150;6.370;2022-11-20T15:56:29;2.50;99.90
52509;DHT22;38420;53.150;6.370;2022-11-20T15:58:54;2.40;99.90
52509;DHT22;38420;53.150;6.370;2022-11-20T16:01:21;2.40;99.90
52509;DHT22;38420;53.150;6.370;2022-11-20T16:03:47;2.40;99.90
52509;DHT22;38420;53.150;6.370;2022-11-20T16:06:13;2.40;99.90
52509;DHT22;38420;53.150;6.370;2022-11-20T16:08:41;2.40;99.90
52509;DHT22;38420;53.150;6.370;2022-11-20T16:11:06;2.40;99.90
52509;DHT22;38420;53.150;6.370;2022-11-20T16:13:34;2.40;99.90
52509;DHT22;38420;53.150;6.370;2022-11-20T16:16:23;2.40;99.90
52509;DHT22;38420;53.150;6.370;2022-11-20T16:18:53;2.30;99.90
52509;DHT22;38420;53.150;6.370;2022-11-20T16:21:19;2.30;99.90
52509;DHT22;38420;53.150;6.370;2022-11-20T16:23:44;2.30;99.90
52509;DHT22;38420;53.150;6.370;2022-11-20T16:26:14;2.30;99.90
52509;DHT22;38420;53.150;6.370;2022-11-20T16:28:41;2.30;99.90
52509;DHT22;38420;53.150;6.370;2022-11-20T16:31:18;2.30;99.90
52509;DHT22;38420;53.150;6.370;2022-11-20T16:33:49;2.20;99.90
52509;DHT22;38420;53.150;6.370;2022-11-20T16:36:17;2.20;99.90
52509;DHT22;38420;53.150;6.370;2022-11-20T16:38:43;2.20;99.90
52509;DHT22;38420;53.150;6.370;2022-11-20T16:41:09;2.20;99.90
52509;DHT22;38420;53.150;6.370;2022-11-20T16:43:49;2.10;99.90
52509;DHT22;38420;53.150;6.370;2022-11-20T16:46:17;2.10;99.90
52509;DHT22;38420;53.150;6.370;2022-11-20T16:48:43;2.10;99.90
52509;DHT22;38420;53.150;6.370;2022-11-20T16:51:11;2.10;99.90
52509;DHT22;38420;53.150;6.370;2022-11-20T16:53:37;2.00;99.90
52509;DHT22;38420;53.150;6.370;2022-11-20T16:56:15;2.00;99.90
52509;DHT22;38420;53.150;6.370;2022-11-20T16:58:42;2.00;99.90
52509;DHT22;38420;53.150;6.370;2022-11-20T17:01:10;2.00;99.90
52509;DHT22;38420;53.150;6.370;2022-11-20T17:03:37;2.00;99.90
52509;DHT22;38420;53.150;6.370;2022-11-20T17:06:17;2.00;99.90
52509;DHT22;38420;53.150;6.370;2022-11-20T17:08:43;2.00;99.90
52509;DHT22;38420;53.150;6.370;2022-11-20T17:11:11;2.00;99.90